sensor_id;sensor_type;location;lat;lon;timestamp;P1;durP1;ratioP1;P2;durP2;ratioP2
4527;SDS011;62320;51.520;6.818;2022-07-24T00:02:20;6.25;;;4.20;;
4527;SDS011;62320;51.520;6.818;2022-07-24T00:07:26;6.60;;;3.88;;
4527;SDS011;62320;51.520;6.818;2022-07-24T00:12:27;5.53;;;4.20;;
4527;SDS011;62320;51.520;6.818;2022-07-24T00:17:28;5.60;;;4.47;;
4527;SDS011;62320;51.520;6.818;2022-07-24T00:22:30;6.22;;;3.95;;
4527;SDS011;62320;51.520;6.818;2022-07-24T00:27:31;6.00;;;4.45;;
4527;SDS011;62320;51.520;6.818;2022-07-24T00:32:33;6.18;;;4.32;;
4527;SDS011;62320;51.520;6.818;2022-07-24T00:37:34;5.80;;;4.00;;
4527;SDS011;62320;51.520;6.818;2022-07-24T00:42:36;5.35;;;4.05;;
4527;SDS011;62320;51.520;6.818;2022-07-24T00:47:37;8.45;;;4.10;;
4527;SDS011;62320;51.520;6.818;2022-07-24T00:52:39;5.63;;;4.00;;
4527;SDS011;62320;51.520;6.818;2022-07-24T00:57:40;6.05;;;4.20;;
4527;SDS011;62320;51.520;6.818;2022-07-24T01:02:45;7.43;;;4.32;;
4527;SDS011;62320;51.520;6.818;2022-07-24T01:07:47;6.30;;;4.07;;
4527;SDS011;62320;51.520;6.818;2022-07-24T01:12:48;5.60;;;4.32;;
4527;SDS011;62320;51.520;6.818;2022-07-24T01:17:50;5.28;;;4.43;;
4527;SDS011;62320;51.520;6.818;2022-07-24T01:22:51;6.28;;;4.50;;
4527;SDS011;62320;51.520;6.818;2022-07-24T01:27:53;5.78;;;4.45;;
4527;SDS011;62320;51.520;6.818;2022-07-24T01:32:54;6.80;;;4.30;;
4527;SDS011;62320;51.520;6.818;2022-07-24T01:37:55;5.53;;;4.13;;
4527;SDS011;62320;51.520;6.818;2022-07-24T01:42:57;6.72;;;4.68;;
4527;SDS011;62320;51.520;6.818;2022-07-24T01:47:59;5.78;;;4.78;;
4527;SDS011;62320;51.520;6.818;2022-07-24T01:53:00;6.63;;;5.00;;
4527;SDS011;62320;51.520;6.818;2022-07-24T01:58:03;6.53;;;4.70;;
4527;SDS011;62320;51.520;6.818;2022-07-24T02:03:04;7.38;;;5.30;;
4527;SDS011;62320;51.520;6.818;2022-07-24T02:08:06;7.93;;;5.32;;
4527;SDS011;62320;51.520;6.818;2022-07-24T02:13:07;9.10;;;5.38;;
4527;SDS011;62320;51.520;6.818;2022-07-24T02:18:09;7.30;;;5.50;;
4527;SDS011;62320;51.520;6.818;2022-07-24T02:23:10;7.45;;;4.95;;
4527;SDS011;62320;51.520;6.818;2022-07-24T02:28:12;6.78;;;5.63;;
4527;SDS011;62320;51.520;6.818;2022-07-24T02:33:15;8.55;;;5.35;;
4527;SDS011;62320;51.520;6.818;2022-07-24T02:38:17;8.48;;;5.80;;
4527;SDS011;62320;51.520;6.818;2022-07-24T02:43:18;8.85;;;5.28;;
4527;SDS011;62320;51.520;6.818;2022-07-24T02:48:20;7.82;;;5.30;;
4527;SDS011;62320;51.520;6.818;2022-07-24T02:53:22;6.43;;;5.38;;
4527;SDS011;62320;51.520;6.818;2022-07-24T02:58:23;7.82;;;6.05;;
4527;SDS011;62320;51.520;6.818;2022-07-24T03:03:25;7.20;;;5.43;;
4527;SDS011;62320;51.520;6.818;2022-07-24T03:08:26;7.97;;;5.45;;
4527;SDS011;62320;51.520;6.818;2022-07-24T03:13:28;7.88;;;5.57;;
4527;SDS011;62320;51.520;6.818;2022-07-24T03:18:29;8.60;;;5.40;;
4527;SDS011;62320;51.520;6.818;2022-07-24T03:23:31;6.88;;;5.32;;
4527;SDS011;62320;51.520;6.818;2022-07-24T03:28:32;7.00;;;5.07;;
4527;SDS011;62320;51.520;6.818;2022-07-24T03:33:34;7.20;;;5.50;;
4527;SDS011;62320;51.520;6.818;2022-07-24T03:38:35;7.28;;;5.68;;
4527;SDS011;62320;51.520;6.818;2022-07-24T03:43:36;7.45;;;6.00;;
4527;SDS011;62320;51.520;6.818;2022-07-24T03:48:38;9.40;;;5.55;;
4527;SDS011;62320;51.520;6.818;2022-07-24T03:53:40;7.93;;;6.18;;
4527;SDS011;62320;51.520;6.818;2022-07-24T03:58:42;6.22;;;5.35;;
4527;SDS011;62320;51.520;6.818;2022-07-24T04:03:43;8.75;;;5.63;;
4527;SDS011;62320;51.520;6.818;2022-07-24T04:08:44;9.13;;;5.63;;
4527;SDS011;62320;51.520;6.818;2022-07-24T04:13:48;7.20;;;5.90;;
4527;SDS011;62320;51.520;6.818;2022-07-24T04:18:49;8.60;;;6.28;;
4527;SDS011;62320;51.520;6.818;2022-07-24T04:23:51;9.45;;;5.63;;
4527;SDS011;62320;51.520;6.818;2022-07-24T04:28:53;7.45;;;5.45;;
4527;SDS011;62320;51.520;6.818;2022-07-24T04:33:54;8.52;;;6.00;;
4527;SDS011;62320;51.520;6.818;2022-07-24T04:38:56;6.75;;;5.55;;
4527;SDS011;62320;51.520;6.818;2022-07-24T04:43:57;6.57;;;5.68;;
4527;SDS011;62320;51.520;6.818;2022-07-24T04:48:59;7.47;;;5.63;;
4527;SDS011;62320;51.520;6.818;2022-07-24T04:54:03;6.47;;;5.35;;
4527;SDS011;62320;51.520;6.818;2022-07-24T04:59:05;7.32;;;6.05;;
4527;SDS011;62320;51.520;6.818;2022-07-24T05:04:07;8.15;;;5.88;;
4527;SDS011;62320;51.520;6.818;2022-07-24T05:09:08;7.20;;;5.80;;
4527;SDS011;62320;51.520;6.818;2022-07-24T05:14:10;8.07;;;5.78;;
4527;SDS011;62320;51.520;6.818;2022-07-24T05:19:11;6.32;;;5.63;;
4527;SDS011;62320;51.520;6.818;2022-07-24T05:24:13;9.38;;;6.13;;
4527;SDS011;62320;51.520;6.818;2022-07-24T05:29:14;6.53;;;5.40;;
4527;SDS011;62320;51.520;6.818;2022-07-24T05:34:16;6.88;;;5.65;;
4527;SDS011;62320;51.520;6.818;2022-07-24T05:39:17;8.35;;;6.32;;
4527;SDS011;62320;51.520;6.818;2022-07-24T05:44:19;7.70;;;5.95;;
4527;SDS011;62320;51.520;6.818;2022-07-24T05:49:20;11.02;;;6.47;;
4527;SDS011;62320;51.520;6.818;2022-07-24T05:54:22;7.63;;;6.20;;
4527;SDS011;62320;51.520;6.818;2022-07-24T05:59:23;9.07;;;6.65;;
4527;SDS011;62320;51.520;6.818;2022-07-24T06:04:25;8.80;;;6.50;;
4527;SDS011;62320;51.520;6.818;2022-07-24T06:09:27;7.13;;;6.30;;
4527;SDS011;62320;51.520;6.818;2022-07-24T06:14:28;8.48;;;6.20;;
4527;SDS011;62320;51.520;6.818;2022-07-24T06:19:30;9.18;;;6.28;;
4527;SDS011;62320;51.520;6.818;2022-07-24T06:24:32;7.50;;;6.07;;
4527;SDS011;62320;51.520;6.818;2022-07-24T06:29:33;10.52;;;6.30;;
4527;SDS011;62320;51.520;6.818;2022-07-24T06:34:35;10.85;;;6.85;;
4527;SDS011;62320;51.520;6.818;2022-07-24T06:39:36;7.93;;;6.47;;
4527;SDS011;62320;51.520;6.818;2022-07-24T06:44:38;10.73;;;6.60;;
4527;SDS011;62320;51.520;6.818;2022-07-24T06:49:40;7.60;;;6.40;;
4527;SDS011;62320;51.520;6.818;2022-07-24T06:54:42;7.70;;;6.68;;
4527;SDS011;62320;51.520;6.818;2022-07-24T06:59:44;8.52;;;6.43;;
4527;SDS011;62320;51.520;6.818;2022-07-24T07:04:46;8.95;;;6.95;;
4527;SDS011;62320;51.520;6.818;2022-07-24T07:09:48;8.98;;;7.30;;
4527;SDS011;62320;51.520;6.818;2022-07-24T07:14:50;10.32;;;7.35;;
4527;SDS011;62320;51.520;6.818;2022-07-24T07:19:51;11.75;;;7.68;;
4527;SDS011;62320;51.520;6.818;2022-07-24T07:24:53;8.63;;;6.75;;
4527;SDS011;62320;51.520;6.818;2022-07-24T07:29:54;10.25;;;8.23;;
4527;SDS011;62320;51.520;6.818;2022-07-24T07:34:56;9.48;;;7.38;;
4527;SDS011;62320;51.520;6.818;2022-07-24T07:39:59;11.00;;;8.95;;
4527;SDS011;62320;51.520;6.818;2022-07-24T07:45:00;11.23;;;9.48;;
4527;SDS011;62320;51.520;6.818;2022-07-24T07:50:02;11.18;;;9.23;;
4527;SDS011;62320;51.520;6.818;2022-07-24T07:55:05;12.95;;;9.05;;
4527;SDS011;62320;51.520;6.818;2022-07-24T08:00:07;14.57;;;9.23;;
4527;SDS011;62320;51.520;6.818;2022-07-24T08:05:10;11.75;;;9.27;;
4527;SDS011;62320;51.520;6.818;2022-07-24T08:10:12;13.73;;;10.30;;
4527;SDS011;62320;51.520;6.818;2022-07-24T08:15:14;12.55;;;9.63;;
4527;SDS011;62320;51.520;6.818;2022-07-24T08:20:15;11.27;;;8.65;;
4527;SDS011;62320;51.520;6.818;2022-07-24T08:25:17;12.15;;;9.88;;
4527;SDS011;62320;51.520;6.818;2022-07-24T08:30:20;14.65;;;9.38;;
4527;SDS011;62320;51.520;6.818;2022-07-24T08:35:22;13.63;;;9.35;;
4527;SDS011;62320;51.520;6.818;2022-07-24T08:40:36;10.37;;;9.17;;
4527;SDS011;62320;51.520;6.818;2022-07-24T08:45:40;12.10;;;8.85;;
4527;SDS011;62320;51.520;6.818;2022-07-24T08:50:43;10.60;;;9.48;;
4527;SDS011;62320;51.520;6.818;2022-07-24T08:55:45;13.60;;;9.50;;
4527;SDS011;62320;51.520;6.818;2022-07-24T09:00:46;12.18;;;9.23;;
4527;SDS011;62320;51.520;6.818;2022-07-24T09:10:59;12.75;;;9.68;;
4527;SDS011;62320;51.520;6.818;2022-07-24T09:16:05;10.88;;;8.57;;
4527;SDS011;62320;51.520;6.818;2022-07-24T09:21:11;11.70;;;9.15;;
4527;SDS011;62320;51.520;6.818;2022-07-24T09:26:15;12.55;;;8.98;;
4527;SDS011;62320;51.520;6.818;2022-07-24T09:31:16;10.70;;;9.38;;
4527;SDS011;62320;51.520;6.818;2022-07-24T09:36:18;11.85;;;8.80;;
4527;SDS011;62320;51.520;6.818;2022-07-24T09:41:21;13.55;;;9.35;;
4527;SDS011;62320;51.520;6.818;2022-07-24T09:46:24;13.70;;;10.13;;
4527;SDS011;62320;51.520;6.818;2022-07-24T09:51:28;11.27;;;8.68;;
4527;SDS011;62320;51.520;6.818;2022-07-24T09:56:30;11.13;;;8.40;;
4527;SDS011;62320;51.520;6.818;2022-07-24T10:01:32;12.43;;;9.15;;
4527;SDS011;62320;51.520;6.818;2022-07-24T10:06:36;10.48;;;7.93;;
4527;SDS011;62320;51.520;6.818;2022-07-24T10:11:39;10.77;;;7.80;;
4527;SDS011;62320;51.520;6.818;2022-07-24T10:16:45;9.00;;;7.40;;
4527;SDS011;62320;51.520;6.818;2022-07-24T10:22:17;10.65;;;8.00;;
4527;SDS011;62320;51.520;6.818;2022-07-24T10:27:31;11.15;;;8.10;;
4527;SDS011;62320;51.520;6.818;2022-07-24T10:32:33;7.60;;;6.72;;
4527;SDS011;62320;51.520;6.818;2022-07-24T10:43:15;10.57;;;7.82;;
4527;SDS011;62320;51.520;6.818;2022-07-24T10:53:43;8.93;;;6.88;;
4527;SDS011;62320;51.520;6.818;2022-07-24T11:03:57;8.80;;;6.60;;
4527;SDS011;62320;51.520;6.818;2022-07-24T11:09:01;8.77;;;6.28;;
4527;SDS011;62320;51.520;6.818;2022-07-24T11:14:04;8.93;;;6.70;;
4527;SDS011;62320;51.520;6.818;2022-07-24T11:34:35;8.82;;;7.07;;
4527;SDS011;62320;51.520;6.818;2022-07-24T11:39:38;11.60;;;6.97;;
4527;SDS011;62320;51.520;6.818;2022-07-24T11:44:42;10.35;;;6.85;;
4527;SDS011;62320;51.520;6.818;2022-07-24T11:49:49;7.82;;;5.97;;
4527;SDS011;62320;51.520;6.818;2022-07-24T11:54:55;8.43;;;6.20;;
4527;SDS011;62320;51.520;6.818;2022-07-24T11:59:59;11.80;;;8.68;;
4527;SDS011;62320;51.520;6.818;2022-07-24T12:05:01;7.78;;;6.35;;
4527;SDS011;62320;51.520;6.818;2022-07-24T12:10:03;8.57;;;6.60;;
4527;SDS011;62320;51.520;6.818;2022-07-24T12:15:06;9.02;;;6.93;;
4527;SDS011;62320;51.520;6.818;2022-07-24T12:20:09;8.18;;;6.07;;
4527;SDS011;62320;51.520;6.818;2022-07-24T12:25:11;6.97;;;5.57;;
4527;SDS011;62320;51.520;6.818;2022-07-24T12:30:20;7.40;;;6.10;;
4527;SDS011;62320;51.520;6.818;2022-07-24T12:35:29;6.78;;;5.68;;
4527;SDS011;62320;51.520;6.818;2022-07-24T12:40:34;9.57;;;5.80;;
4527;SDS011;62320;51.520;6.818;2022-07-24T12:45:37;8.07;;;5.28;;
4527;SDS011;62320;51.520;6.818;2022-07-24T12:50:39;9.13;;;5.82;;
4527;SDS011;62320;51.520;6.818;2022-07-24T13:01:09;6.03;;;5.43;;
4527;SDS011;62320;51.520;6.818;2022-07-24T13:06:10;5.80;;;5.20;;
4527;SDS011;62320;51.520;6.818;2022-07-24T13:11:12;6.47;;;5.10;;
4527;SDS011;62320;51.520;6.818;2022-07-24T13:16:13;7.00;;;5.18;;
4527;SDS011;62320;51.520;6.818;2022-07-24T13:21:15;7.45;;;5.82;;
4527;SDS011;62320;51.520;6.818;2022-07-24T13:26:19;7.90;;;5.78;;
4527;SDS011;62320;51.520;6.818;2022-07-24T13:31:21;6.28;;;5.68;;
4527;SDS011;62320;51.520;6.818;2022-07-24T13:36:22;6.53;;;5.15;;
4527;SDS011;62320;51.520;6.818;2022-07-24T13:41:25;6.97;;;5.72;;
4527;SDS011;62320;51.520;6.818;2022-07-24T13:46:26;5.72;;;4.97;;
4527;SDS011;62320;51.520;6.818;2022-07-24T13:51:30;8.25;;;5.68;;
4527;SDS011;62320;51.520;6.818;2022-07-24T13:56:31;6.47;;;5.53;;
4527;SDS011;62320;51.520;6.818;2022-07-24T14:01:33;6.80;;;5.55;;
4527;SDS011;62320;51.520;6.818;2022-07-24T14:06:36;7.38;;;5.40;;
4527;SDS011;62320;51.520;6.818;2022-07-24T14:11:37;6.25;;;5.30;;
4527;SDS011;62320;51.520;6.818;2022-07-24T14:16:42;6.82;;;6.00;;
4527;SDS011;62320;51.520;6.818;2022-07-24T14:21:44;7.40;;;5.82;;
4527;SDS011;62320;51.520;6.818;2022-07-24T14:26:48;6.57;;;5.60;;
4527;SDS011;62320;51.520;6.818;2022-07-24T14:31:50;6.18;;;5.53;;
4527;SDS011;62320;51.520;6.818;2022-07-24T14:36:52;8.35;;;5.35;;
4527;SDS011;62320;51.520;6.818;2022-07-24T14:41:54;6.32;;;4.90;;
4527;SDS011;62320;51.520;6.818;2022-07-24T14:46:55;6.25;;;5.03;;
4527;SDS011;62320;51.520;6.818;2022-07-24T14:51:58;7.00;;;5.35;;
4527;SDS011;62320;51.520;6.818;2022-07-24T14:57:00;6.22;;;5.15;;
4527;SDS011;62320;51.520;6.818;2022-07-24T15:02:02;5.85;;;5.25;;
4527;SDS011;62320;51.520;6.818;2022-07-24T15:07:03;6.60;;;5.22;;
4527;SDS011;62320;51.520;6.818;2022-07-24T15:12:05;7.13;;;5.15;;
4527;SDS011;62320;51.520;6.818;2022-07-24T15:17:07;6.50;;;4.88;;
4527;SDS011;62320;51.520;6.818;2022-07-24T15:22:08;6.38;;;4.88;;
4527;SDS011;62320;51.520;6.818;2022-07-24T15:27:10;6.18;;;5.57;;
4527;SDS011;62320;51.520;6.818;2022-07-24T15:32:12;7.80;;;5.70;;
4527;SDS011;62320;51.520;6.818;2022-07-24T15:37:14;6.53;;;4.65;;
4527;SDS011;62320;51.520;6.818;2022-07-24T15:42:15;6.93;;;4.95;;
4527;SDS011;62320;51.520;6.818;2022-07-24T15:47:17;6.97;;;5.10;;
4527;SDS011;62320;51.520;6.818;2022-07-24T15:52:18;10.55;;;5.50;;
4527;SDS011;62320;51.520;6.818;2022-07-24T15:57:20;7.45;;;4.95;;
4527;SDS011;62320;51.520;6.818;2022-07-24T16:02:21;6.35;;;4.95;;
4527;SDS011;62320;51.520;6.818;2022-07-24T16:07:24;6.65;;;5.00;;
4527;SDS011;62320;51.520;6.818;2022-07-24T16:12:25;7.82;;;5.07;;
4527;SDS011;62320;51.520;6.818;2022-07-24T16:17:27;6.95;;;5.15;;
4527;SDS011;62320;51.520;6.818;2022-07-24T16:22:29;7.13;;;5.07;;
4527;SDS011;62320;51.520;6.818;2022-07-24T16:27:31;5.93;;;5.03;;
4527;SDS011;62320;51.520;6.818;2022-07-24T16:32:33;7.15;;;5.30;;
4527;SDS011;62320;51.520;6.818;2022-07-24T16:37:34;5.85;;;5.20;;
4527;SDS011;62320;51.520;6.818;2022-07-24T16:42:36;5.93;;;5.25;;
4527;SDS011;62320;51.520;6.818;2022-07-24T16:47:37;6.85;;;4.80;;
4527;SDS011;62320;51.520;6.818;2022-07-24T16:52:39;6.32;;;5.07;;
4527;SDS011;62320;51.520;6.818;2022-07-24T16:57:54;8.85;;;5.20;;
4527;SDS011;62320;51.520;6.818;2022-07-24T17:02:55;6.95;;;5.35;;
4527;SDS011;62320;51.520;6.818;2022-07-24T17:07:57;6.93;;;5.00;;
4527;SDS011;62320;51.520;6.818;2022-07-24T17:12:58;6.90;;;5.20;;
4527;SDS011;62320;51.520;6.818;2022-07-24T17:18:00;8.32;;;5.38;;
4527;SDS011;62320;51.520;6.818;2022-07-24T17:23:07;7.15;;;5.40;;
4527;SDS011;62320;51.520;6.818;2022-07-24T17:28:13;8.52;;;5.53;;
4527;SDS011;62320;51.520;6.818;2022-07-24T17:33:15;5.85;;;5.20;;
4527;SDS011;62320;51.520;6.818;2022-07-24T17:38:18;6.15;;;5.28;;
4527;SDS011;62320;51.520;6.818;2022-07-24T17:43:21;6.18;;;5.57;;
4527;SDS011;62320;51.520;6.818;2022-07-24T17:48:22;8.70;;;5.45;;
4527;SDS011;62320;51.520;6.818;2022-07-24T17:53:23;6.20;;;5.60;;
4527;SDS011;62320;51.520;6.818;2022-07-24T17:58:25;6.63;;;5.53;;
4527;SDS011;62320;51.520;6.818;2022-07-24T18:03:26;6.22;;;4.95;;
4527;SDS011;62320;51.520;6.818;2022-07-24T18:08:28;6.13;;;5.40;;
4527;SDS011;62320;51.520;6.818;2022-07-24T18:13:29;7.60;;;5.47;;
4527;SDS011;62320;51.520;6.818;2022-07-24T18:18:32;5.82;;;5.13;;
4527;SDS011;62320;51.520;6.818;2022-07-24T18:23:33;6.90;;;5.60;;
4527;SDS011;62320;51.520;6.818;2022-07-24T18:28:35;6.07;;;5.47;;
4527;SDS011;62320;51.520;6.818;2022-07-24T18:33:36;8.68;;;6.00;;
4527;SDS011;62320;51.520;6.818;2022-07-24T18:38:39;8.43;;;5.75;;
4527;SDS011;62320;51.520;6.818;2022-07-24T18:43:40;6.88;;;5.88;;
4527;SDS011;62320;51.520;6.818;2022-07-24T18:48:43;7.88;;;5.32;;
4527;SDS011;62320;51.520;6.818;2022-07-24T18:53:44;6.88;;;6.05;;
4527;SDS011;62320;51.520;6.818;2022-07-24T18:58:46;8.35;;;6.07;;
4527;SDS011;62320;51.520;6.818;2022-07-24T19:03:49;8.48;;;5.95;;
4527;SDS011;62320;51.520;6.818;2022-07-24T19:08:50;6.75;;;6.00;;
4527;SDS011;62320;51.520;6.818;2022-07-24T19:13:52;7.85;;;6.07;;
4527;SDS011;62320;51.520;6.818;2022-07-24T19:18:53;7.25;;;6.00;;
4527;SDS011;62320;51.520;6.818;2022-07-24T19:23:56;7.55;;;5.78;;
4527;SDS011;62320;51.520;6.818;2022-07-24T19:28:58;7.55;;;6.03;;
4527;SDS011;62320;51.520;6.818;2022-07-24T19:33:59;7.88;;;6.18;;
4527;SDS011;62320;51.520;6.818;2022-07-24T19:39:03;6.68;;;5.70;;
4527;SDS011;62320;51.520;6.818;2022-07-24T19:44:04;9.18;;;6.20;;
4527;SDS011;62320;51.520;6.818;2022-07-24T19:49:07;7.40;;;5.85;;
4527;SDS011;62320;51.520;6.818;2022-07-24T19:54:08;7.10;;;6.40;;
4527;SDS011;62320;51.520;6.818;2022-07-24T19:59:11;8.00;;;6.38;;
4527;SDS011;62320;51.520;6.818;2022-07-24T20:04:12;10.18;;;6.75;;
4527;SDS011;62320;51.520;6.818;2022-07-24T20:09:13;8.52;;;6.65;;
4527;SDS011;62320;51.520;6.818;2022-07-24T20:14:15;8.10;;;6.63;;
4527;SDS011;62320;51.520;6.818;2022-07-24T20:19:16;9.20;;;7.25;;
4527;SDS011;62320;51.520;6.818;2022-07-24T20:24:18;9.10;;;6.80;;
4527;SDS011;62320;51.520;6.818;2022-07-24T20:29:20;9.98;;;7.13;;
4527;SDS011;62320;51.520;6.818;2022-07-24T20:34:21;12.73;;;7.60;;
4527;SDS011;62320;51.520;6.818;2022-07-24T20:39:23;8.73;;;7.60;;
4527;SDS011;62320;51.520;6.818;2022-07-24T20:44:25;9.60;;;7.57;;
4527;SDS011;62320;51.520;6.818;2022-07-24T20:49:26;9.38;;;7.38;;
4527;SDS011;62320;51.520;6.818;2022-07-24T20:54:28;10.02;;;7.40;;
4527;SDS011;62320;51.520;6.818;2022-07-24T20:59:29;8.95;;;7.47;;
4527;SDS011;62320;51.520;6.818;2022-07-24T21:04:32;11.40;;;6.97;;
4527;SDS011;62320;51.520;6.818;2022-07-24T21:09:33;9.65;;;7.32;;
4527;SDS011;62320;51.520;6.818;2022-07-24T21:14:35;10.63;;;7.70;;
4527;SDS011;62320;51.520;6.818;2022-07-24T21:19:36;10.52;;;7.80;;
4527;SDS011;62320;51.520;6.818;2022-07-24T21:24:38;9.50;;;7.53;;
4527;SDS011;62320;51.520;6.818;2022-07-24T21:29:39;10.65;;;7.28;;
4527;SDS011;62320;51.520;6.818;2022-07-24T21:34:41;10.10;;;7.53;;
4527;SDS011;62320;51.520;6.818;2022-07-24T21:39:42;13.63;;;8.05;;
4527;SDS011;62320;51.520;6.818;2022-07-24T21:44:44;10.63;;;8.45;;
4527;SDS011;62320;51.520;6.818;2022-07-24T21:49:45;9.52;;;7.95;;
4527;SDS011;62320;51.520;6.818;2022-07-24T21:54:47;11.50;;;7.95;;
4527;SDS011;62320;51.520;6.818;2022-07-24T21:59:48;10.38;;;8.07;;
4527;SDS011;62320;51.520;6.818;2022-07-24T22:04:50;10.43;;;7.93;;
4527;SDS011;62320;51.520;6.818;2022-07-24T22:09:52;9.10;;;7.65;;
4527;SDS011;62320;51.520;6.818;2022-07-24T22:14:53;9.20;;;7.88;;
4527;SDS011;62320;51.520;6.818;2022-07-24T22:19:55;10.13;;;8.20;;
4527;SDS011;62320;51.520;6.818;2022-07-24T22:24:56;10.73;;;7.45;;
4527;SDS011;62320;51.520;6.818;2022-07-24T22:29:58;9.13;;;7.57;;
4527;SDS011;62320;51.520;6.818;2022-07-24T22:34:59;8.60;;;7.70;;
4527;SDS011;62320;51.520;6.818;2022-07-24T22:40:02;9.32;;;8.02;;
4527;SDS011;62320;51.520;6.818;2022-07-24T22:45:21;11.55;;;8.35;;
4527;SDS011;62320;51.520;6.818;2022-07-24T22:50:23;9.00;;;8.10;;
4527;SDS011;62320;51.520;6.818;2022-07-24T22:55:25;11.65;;;8.48;;
4527;SDS011;62320;51.520;6.818;2022-07-24T23:00:30;10.98;;;7.95;;
4527;SDS011;62320;51.520;6.818;2022-07-24T23:05:32;9.75;;;7.97;;
4527;SDS011;62320;51.520;6.818;2022-07-24T23:10:33;9.52;;;7.63;;
4527;SDS011;62320;51.520;6.818;2022-07-24T23:15:35;10.45;;;8.50;;
4527;SDS011;62320;51.520;6.818;2022-07-24T23:20:37;9.88;;;8.23;;
4527;SDS011;62320;51.520;6.818;2022-07-24T23:25:38;10.38;;;8.65;;
4527;SDS011;62320;51.520;6.818;2022-07-24T23:30:40;10.30;;;8.15;;
4527;SDS011;62320;51.520;6.818;2022-07-24T23:35:41;9.80;;;8.02;;
4527;SDS011;62320;51.520;6.818;2022-07-24T23:40:43;10.90;;;7.93;;
4527;SDS011;62320;51.520;6.818;2022-07-24T23:45:44;9.82;;;8.10;;
4527;SDS011;62320;51.520;6.818;2022-07-24T23:50:46;9.40;;;7.43;;
4527;SDS011;62320;51.520;6.818;2022-07-24T23:55:47;8.52;;;7.45;;
